createdAt,value
2019-03-23T00:00:36.099Z,1019.34
2019-03-23T00:01:36.092Z,1019.35
2019-03-23T00:02:36.072Z,1019.38
2019-03-23T00:03:36.058Z,1019.36
2019-03-23T00:04:36.038Z,1019.34
2019-03-23T00:05:36.025Z,1019.35
2019-03-23T00:06:36.004Z,1019.34
2019-03-23T00:07:35.990Z,1019.37
2019-03-23T00:08:35.975Z,1019.39
2019-03-23T00:09:35.956Z,1019.39
2019-03-23T00:10:35.944Z,1019.41
2019-03-23T00:11:35.933Z,1019.40
2019-03-23T00:12:35.908Z,1019.42
2019-03-23T00:13:35.892Z,1019.43
2019-03-23T00:14:35.886Z,1019.40
2019-03-23T00:15:35.865Z,1019.37
2019-03-23T00:16:35.844Z,1019.41
2019-03-23T00:17:35.834Z,1019.42
2019-03-23T00:18:35.817Z,1019.40
2019-03-23T00:19:35.794Z,1019.42
2019-03-23T00:20:35.780Z,1019.42
2019-03-23T00:21:35.765Z,1019.40
2019-03-23T00:22:35.746Z,1019.41
2019-03-23T00:23:35.730Z,1019.38
2019-03-23T00:24:35.724Z,1019.38
2019-03-23T00:25:35.705Z,1019.34
2019-03-23T00:26:35.683Z,1019.35
2019-03-23T00:27:35.662Z,1019.36
2019-03-23T00:28:35.650Z,1019.37
2019-03-23T00:29:35.630Z,1019.35
2019-03-23T00:30:35.616Z,1019.38
2019-03-23T00:31:35.614Z,1019.36
2019-03-23T00:32:35.592Z,1019.40
2019-03-23T00:33:35.568Z,1019.41
2019-03-23T00:34:35.550Z,1019.41
2019-03-23T00:35:35.532Z,1019.45
2019-03-23T00:36:41.257Z,1019.48
2019-03-23T00:37:35.503Z,1019.47
2019-03-23T00:38:35.489Z,1019.49
2019-03-23T00:39:35.475Z,1019.46
2019-03-23T00:40:35.454Z,1019.45
2019-03-23T00:41:35.445Z,1019.46
2019-03-23T00:42:35.423Z,1019.48
2019-03-23T00:43:35.412Z,1019.47
2019-03-23T00:44:35.389Z,1019.46
2019-03-23T00:45:35.375Z,1019.50
2019-03-23T00:46:35.358Z,1019.51
2019-03-23T00:47:35.343Z,1019.54
2019-03-23T00:48:35.328Z,1019.58
2019-03-23T00:49:35.307Z,1019.55
2019-03-23T00:50:35.303Z,1019.61
2019-03-23T00:51:35.277Z,1019.58
2019-03-23T00:52:35.257Z,1019.66
2019-03-23T00:53:35.241Z,1019.68
2019-03-23T00:54:35.224Z,1019.67
2019-03-23T00:55:35.212Z,1019.66
2019-03-23T00:56:35.192Z,1019.69
2019-03-23T00:57:35.179Z,1019.69
2019-03-23T00:58:35.166Z,1019.74
2019-03-23T00:59:35.172Z,1019.71
2019-03-23T01:00:35.130Z,1019.69
2019-03-23T01:01:35.109Z,1019.69
2019-03-23T01:02:35.099Z,1019.72
2019-03-23T01:03:35.078Z,1019.71
2019-03-23T01:04:35.061Z,1019.66
2019-03-23T01:05:35.047Z,1019.68
2019-03-23T01:06:35.026Z,1019.71
2019-03-23T01:07:35.010Z,1019.70
2019-03-23T01:08:34.994Z,1019.73
2019-03-23T01:09:34.979Z,1019.73
2019-03-23T01:10:34.960Z,1019.74
2019-03-23T01:11:34.944Z,1019.70
2019-03-23T01:12:34.935Z,1019.71
2019-03-23T01:13:34.912Z,1019.74
2019-03-23T01:14:34.896Z,1019.76
2019-03-23T01:15:34.883Z,1019.76
2019-03-23T01:16:34.863Z,1019.75
2019-03-23T01:17:34.848Z,1019.77
2019-03-23T01:18:34.825Z,1019.78
2019-03-23T01:19:34.810Z,1019.80
2019-03-23T01:20:34.801Z,1019.78
2019-03-23T01:21:34.784Z,1019.82
2019-03-23T01:22:34.760Z,1019.80
2019-03-23T01:23:34.745Z,1019.81
2019-03-23T01:24:34.727Z,1019.84
2019-03-23T01:25:34.710Z,1019.83
2019-03-23T01:26:34.697Z,1019.87
2019-03-23T01:27:34.677Z,1019.83
2019-03-23T01:28:34.665Z,1019.81
2019-03-23T01:29:34.644Z,1019.86
2019-03-23T01:30:34.631Z,1019.86
2019-03-23T01:31:34.609Z,1019.84
2019-03-23T01:32:34.591Z,1019.84
2019-03-23T01:33:34.575Z,1019.90
2019-03-23T01:34:34.568Z,1019.91
2019-03-23T01:35:34.540Z,1019.92
2019-03-23T01:36:34.520Z,1019.88
2019-03-23T01:37:34.505Z,1019.89
2019-03-23T01:38:34.495Z,1019.91
2019-03-23T01:39:34.478Z,1019.90
2019-03-23T01:40:36.326Z,1019.88
2019-03-23T01:41:34.438Z,1019.87
2019-03-23T01:42:34.423Z,1019.89
2019-03-23T01:43:34.407Z,1019.90
2019-03-23T01:44:34.393Z,1019.90
2019-03-23T01:45:34.369Z,1019.88
2019-03-23T01:46:34.356Z,1019.89
2019-03-23T01:47:34.336Z,1019.88
2019-03-23T01:48:34.316Z,1019.87
2019-03-23T01:49:34.301Z,1019.89
2019-03-23T01:50:34.281Z,1019.95
2019-03-23T01:51:34.271Z,1019.94
2019-03-23T01:52:34.249Z,1019.96
2019-03-23T01:53:34.234Z,1019.95
2019-03-23T01:54:34.210Z,1019.97
2019-03-23T01:55:34.197Z,1019.97
2019-03-23T01:56:34.184Z,1020.01
2019-03-23T01:57:34.156Z,1020.01
2019-03-23T01:58:34.142Z,1019.96
2019-03-23T01:59:34.124Z,1019.98
2019-03-23T02:00:34.106Z,1019.98
2019-03-23T02:01:34.088Z,1019.96
2019-03-23T02:02:34.066Z,1019.93
2019-03-23T02:03:34.051Z,1019.95
2019-03-23T02:04:34.033Z,1019.96
2019-03-23T02:05:34.021Z,1020.01
2019-03-23T02:06:34.005Z,1020.01
2019-03-23T02:07:33.990Z,1020.02
2019-03-23T02:08:33.970Z,1020.07
2019-03-23T02:09:33.943Z,1020.07
2019-03-23T02:10:33.929Z,1020.06
2019-03-23T02:11:33.921Z,1020.06
2019-03-23T02:12:33.892Z,1020.08
2019-03-23T02:13:33.880Z,1020.11
2019-03-23T02:14:33.856Z,1020.07
2019-03-23T02:15:33.835Z,1020.11
2019-03-23T02:16:33.821Z,1020.16
2019-03-23T02:17:33.804Z,1020.11
2019-03-23T02:18:33.787Z,1020.15
2019-03-23T02:19:33.767Z,1020.13
2019-03-23T02:20:33.748Z,1020.11
2019-03-23T02:21:33.724Z,1020.17
2019-03-23T02:22:33.706Z,1020.13
2019-03-23T02:23:33.690Z,1020.14
2019-03-23T02:24:33.669Z,1020.15
2019-03-23T02:25:33.653Z,1020.20
2019-03-23T02:26:33.634Z,1020.20
2019-03-23T02:27:33.634Z,1020.23
2019-03-23T02:28:33.605Z,1020.21
2019-03-23T02:29:33.578Z,1020.19
2019-03-23T02:30:33.563Z,1020.22
2019-03-23T02:31:33.549Z,1020.18
2019-03-23T02:32:33.527Z,1020.21
2019-03-23T02:33:33.505Z,1020.26
2019-03-23T02:34:33.490Z,1020.24
2019-03-23T02:35:33.470Z,1020.28
2019-03-23T02:36:33.492Z,1020.28
2019-03-23T02:37:33.452Z,1020.30
2019-03-23T02:38:33.444Z,1020.26
2019-03-23T02:39:33.406Z,1020.28
2019-03-23T02:40:33.379Z,1020.27
2019-03-23T02:41:33.376Z,1020.29
2019-03-23T02:42:33.340Z,1020.31
2019-03-23T02:43:33.334Z,1020.37
2019-03-23T02:44:33.306Z,1020.35
2019-03-23T02:45:33.290Z,1020.34
2019-03-23T02:46:33.265Z,1020.35
2019-03-23T02:47:33.249Z,1020.37
2019-03-23T02:48:33.229Z,1020.44
2019-03-23T02:49:33.213Z,1020.44
2019-03-23T02:50:33.192Z,1020.44
2019-03-23T02:51:33.178Z,1020.47
2019-03-23T02:52:33.157Z,1020.47
2019-03-23T02:53:33.139Z,1020.51
2019-03-23T02:54:33.118Z,1020.51
2019-03-23T02:55:33.105Z,1020.52
2019-03-23T02:56:33.086Z,1020.55
2019-03-23T02:57:33.062Z,1020.54
2019-03-23T02:58:33.043Z,1020.62
2019-03-23T02:59:33.026Z,1020.59
2019-03-23T03:00:33.009Z,1020.61
2019-03-23T03:01:32.990Z,1020.61
2019-03-23T03:02:32.972Z,1020.64
2019-03-23T03:03:32.960Z,1020.61
2019-03-23T03:04:32.957Z,1020.61
2019-03-23T03:05:32.915Z,1020.62
2019-03-23T03:06:32.899Z,1020.63
2019-03-23T03:07:41.817Z,1020.63
2019-03-23T03:08:32.881Z,1020.66
2019-03-23T03:09:32.841Z,1020.65
2019-03-23T03:10:32.822Z,1020.66
2019-03-23T03:11:32.805Z,1020.66
2019-03-23T03:12:32.795Z,1020.70
2019-03-23T03:13:32.768Z,1020.66
2019-03-23T03:14:32.755Z,1020.70
2019-03-23T03:15:32.736Z,1020.69
2019-03-23T03:16:32.713Z,1020.74
2019-03-23T03:17:32.690Z,1020.78
2019-03-23T03:18:32.685Z,1020.80
2019-03-23T03:19:32.657Z,1020.79
2019-03-23T03:20:32.638Z,1020.81
2019-03-23T03:21:32.615Z,1020.82
2019-03-23T03:22:32.605Z,1020.85
2019-03-23T03:23:32.583Z,1020.86
2019-03-23T03:24:32.561Z,1020.94
2019-03-23T03:25:32.543Z,1020.91
2019-03-23T03:26:32.525Z,1020.91
2019-03-23T03:27:32.504Z,1020.94
2019-03-23T03:28:32.485Z,1020.92
2019-03-23T03:29:32.470Z,1020.90
2019-03-23T03:30:32.454Z,1020.86
2019-03-23T03:31:32.436Z,1020.84
2019-03-23T03:32:32.472Z,1020.83
2019-03-23T03:33:32.390Z,1020.84
2019-03-23T03:34:32.372Z,1020.83
2019-03-23T03:35:32.351Z,1020.87
2019-03-23T03:36:32.335Z,1020.87
2019-03-23T03:37:32.320Z,1020.86
2019-03-23T03:38:32.296Z,1020.90
2019-03-23T03:39:32.283Z,1020.92
2019-03-23T03:40:32.268Z,1020.93
2019-03-23T03:41:32.242Z,1020.95
2019-03-23T03:42:32.221Z,1020.92
2019-03-23T03:43:32.206Z,1020.89
2019-03-23T03:44:32.201Z,1020.90
2019-03-23T03:45:32.173Z,1020.92
2019-03-23T03:46:32.149Z,1020.95
2019-03-23T03:47:32.128Z,1020.99
2019-03-23T03:48:32.111Z,1021.01
2019-03-23T03:49:32.094Z,1020.99
2019-03-23T03:50:32.074Z,1021.03
2019-03-23T03:51:32.053Z,1021.03
2019-03-23T03:52:32.037Z,1021.03
2019-03-23T03:53:32.044Z,1021.00
2019-03-23T03:54:32.001Z,1020.99
2019-03-23T03:55:31.978Z,1021.02
2019-03-23T03:56:31.960Z,1021.06
2019-03-23T03:57:31.947Z,1021.03
2019-03-23T03:58:31.921Z,1021.09
2019-03-23T03:59:31.905Z,1021.11
2019-03-23T04:00:31.890Z,1021.09
2019-03-23T04:01:31.874Z,1021.12
2019-03-23T04:02:31.851Z,1021.08
2019-03-23T04:03:31.833Z,1021.07
2019-03-23T04:04:31.811Z,1021.06
2019-03-23T04:05:31.791Z,1021.09
2019-03-23T04:06:31.778Z,1021.10
2019-03-23T04:07:31.756Z,1021.15
2019-03-23T04:08:31.745Z,1021.13
2019-03-23T04:09:31.722Z,1021.14
2019-03-23T04:10:31.701Z,1021.12
2019-03-23T04:11:31.684Z,1021.09
2019-03-23T04:12:31.664Z,1021.06
2019-03-23T04:13:31.646Z,1021.09
2019-03-23T04:14:31.621Z,1021.12
2019-03-23T04:15:31.606Z,1021.09
2019-03-23T04:16:31.590Z,1021.18
2019-03-23T04:17:31.576Z,1021.24
2019-03-23T04:18:31.550Z,1021.24
2019-03-23T04:19:31.530Z,1021.25
2019-03-23T04:20:31.519Z,1021.22
2019-03-23T04:21:31.494Z,1021.22
2019-03-23T04:22:31.501Z,1021.18
2019-03-23T04:23:31.464Z,1021.26
2019-03-23T04:24:31.447Z,1021.30
2019-03-23T04:25:31.415Z,1021.33
2019-03-23T04:26:31.445Z,1021.36
2019-03-23T04:27:31.379Z,1021.34
2019-03-23T04:28:31.401Z,1021.36
2019-03-23T04:29:31.359Z,1021.34
2019-03-23T04:30:31.317Z,1021.35
2019-03-23T04:31:31.302Z,1021.36
2019-03-23T04:32:31.285Z,1021.35
2019-03-23T04:33:31.260Z,1021.26
2019-03-23T04:34:31.241Z,1021.19
2019-03-23T04:35:31.224Z,1021.21
2019-03-23T04:36:31.210Z,1021.19
2019-03-23T04:37:31.207Z,1021.21
2019-03-23T04:38:31.169Z,1021.21
2019-03-23T04:39:31.150Z,1021.18
2019-03-23T04:40:31.146Z,1021.15
2019-03-23T04:41:31.111Z,1021.14
2019-03-23T04:42:31.093Z,1021.08
2019-03-23T04:43:31.074Z,1021.09
2019-03-23T04:44:31.054Z,1021.08
2019-03-23T04:45:31.035Z,1021.11
2019-03-23T04:46:31.016Z,1021.11
2019-03-23T04:47:31.004Z,1021.14
2019-03-23T04:48:30.985Z,1021.17
2019-03-23T04:49:30.958Z,1021.22
2019-03-23T04:50:30.943Z,1021.24
2019-03-23T04:51:30.923Z,1021.26
2019-03-23T04:52:30.906Z,1021.31
2019-03-23T04:53:30.881Z,1021.27
2019-03-23T04:54:30.863Z,1021.28
2019-03-23T04:55:30.850Z,1021.26
2019-03-23T04:56:30.827Z,1021.22
2019-03-23T04:57:30.806Z,1021.22
2019-03-23T04:58:30.787Z,1021.18
2019-03-23T04:59:30.769Z,1021.15
2019-03-23T05:00:30.763Z,1021.23
2019-03-23T05:01:30.730Z,1021.30
2019-03-23T05:02:30.711Z,1021.36
2019-03-23T05:03:30.697Z,1021.39
2019-03-23T05:04:30.676Z,1021.36
2019-03-23T05:05:30.655Z,1021.36
2019-03-23T05:06:30.637Z,1021.35
2019-03-23T05:07:30.618Z,1021.39
2019-03-23T05:08:33.512Z,1021.43
2019-03-23T05:09:30.582Z,1021.40
2019-03-23T05:10:30.565Z,1021.38
2019-03-23T05:11:30.541Z,1021.39
2019-03-23T05:12:30.525Z,1021.42
2019-03-23T05:13:30.505Z,1021.45
2019-03-23T05:14:30.493Z,1021.48
2019-03-23T05:15:30.474Z,1021.47
2019-03-23T05:16:30.454Z,1021.46
2019-03-23T05:17:30.428Z,1021.46
2019-03-23T05:18:30.413Z,1021.46
2019-03-23T05:19:30.391Z,1021.50
2019-03-23T05:20:30.373Z,1021.56
2019-03-23T05:21:30.351Z,1021.56
2019-03-23T05:22:30.334Z,1021.58
2019-03-23T05:23:30.327Z,1021.60
2019-03-23T05:24:30.297Z,1021.57
2019-03-23T05:25:30.277Z,1021.63
2019-03-23T05:26:30.260Z,1021.63
2019-03-23T05:27:30.244Z,1021.64
2019-03-23T05:28:30.224Z,1021.61
2019-03-23T05:29:30.202Z,1021.68
2019-03-23T05:30:30.184Z,1021.71
2019-03-23T05:31:30.167Z,1021.70
2019-03-23T05:32:30.144Z,1021.73
2019-03-23T05:33:30.128Z,1021.75
2019-03-23T05:34:30.105Z,1021.79
2019-03-23T05:35:30.090Z,1021.85
2019-03-23T05:36:30.075Z,1021.86
2019-03-23T05:37:30.051Z,1021.91
2019-03-23T05:38:30.042Z,1021.95
2019-03-23T05:39:30.013Z,1021.98
2019-03-23T05:40:30.001Z,1021.92
2019-03-23T05:41:30.928Z,1021.94
2019-03-23T05:42:29.954Z,1021.97
2019-03-23T05:43:29.935Z,1021.99
2019-03-23T05:44:29.916Z,1021.97
2019-03-23T05:45:29.897Z,1022.03
2019-03-23T05:46:29.878Z,1022.07
2019-03-23T05:47:29.868Z,1022.07
2019-03-23T05:48:29.843Z,1022.06
2019-03-23T05:49:29.820Z,1022.07
2019-03-23T05:50:29.804Z,1022.07
2019-03-23T05:51:29.787Z,1022.07
2019-03-23T05:52:29.770Z,1022.09
2019-03-23T05:53:29.744Z,1022.13
2019-03-23T05:54:29.725Z,1022.11
2019-03-23T05:55:29.718Z,1022.11
2019-03-23T05:56:29.698Z,1022.16
2019-03-23T05:57:29.669Z,1022.14
2019-03-23T05:58:29.655Z,1022.20
2019-03-23T05:59:29.634Z,1022.18
2019-03-23T06:00:29.613Z,1022.14
2019-03-23T06:01:29.598Z,1022.16
2019-03-23T06:02:29.577Z,1022.15
2019-03-23T06:03:29.561Z,1022.17
2019-03-23T06:04:29.545Z,1022.18
2019-03-23T06:05:29.517Z,1022.18
2019-03-23T06:06:29.504Z,1022.19
2019-03-23T06:07:29.488Z,1022.16
2019-03-23T06:08:29.465Z,1022.20
2019-03-23T06:09:29.446Z,1022.22
2019-03-23T06:10:29.422Z,1022.20
2019-03-23T06:11:29.406Z,1022.17
2019-03-23T06:12:29.389Z,1022.28
2019-03-23T06:13:29.370Z,1022.28
2019-03-23T06:14:29.347Z,1022.26
2019-03-23T06:15:29.332Z,1022.24
2019-03-23T06:16:29.310Z,1022.28
2019-03-23T06:17:29.296Z,1022.34
2019-03-23T06:18:29.272Z,1022.29
2019-03-23T06:19:29.256Z,1022.27
2019-03-23T06:20:29.236Z,1022.35
2019-03-23T06:21:29.217Z,1022.33
2019-03-23T06:22:29.201Z,1022.33
2019-03-23T06:23:29.180Z,1022.33
2019-03-23T06:24:29.158Z,1022.34
2019-03-23T06:25:29.152Z,1022.35
2019-03-23T06:26:29.121Z,1022.42
2019-03-23T06:27:29.106Z,1022.38
2019-03-23T06:28:29.086Z,1022.44
2019-03-23T06:29:29.065Z,1022.44
2019-03-23T06:30:29.048Z,1022.49
2019-03-23T06:31:29.027Z,1022.44
2019-03-23T06:32:29.010Z,1022.49
2019-03-23T06:33:28.987Z,1022.45
2019-03-23T06:34:28.967Z,1022.46
2019-03-23T06:35:28.982Z,1022.42
2019-03-23T06:36:28.930Z,1022.47
2019-03-23T06:37:28.921Z,1022.49
2019-03-23T06:38:28.894Z,1022.46
2019-03-23T06:39:28.882Z,1022.48
2019-03-23T06:40:28.864Z,1022.49
2019-03-23T06:41:28.844Z,1022.51
2019-03-23T06:42:28.821Z,1022.47
2019-03-23T06:43:28.802Z,1022.49
2019-03-23T06:44:28.783Z,1022.45
2019-03-23T06:45:28.766Z,1022.45
2019-03-23T06:46:28.742Z,1022.48
2019-03-23T06:47:28.729Z,1022.45
2019-03-23T06:48:28.706Z,1022.46
2019-03-23T06:49:28.689Z,1022.45
2019-03-23T06:50:28.670Z,1022.44
2019-03-23T06:51:28.654Z,1022.45
2019-03-23T06:52:28.631Z,1022.47
2019-03-23T06:53:28.615Z,1022.48
2019-03-23T06:54:28.595Z,1022.51
2019-03-23T06:55:28.579Z,1022.50
2019-03-23T06:56:28.554Z,1022.46
2019-03-23T06:57:28.540Z,1022.52
2019-03-23T06:58:28.520Z,1022.49
2019-03-23T06:59:28.500Z,1022.51
2019-03-23T07:00:28.482Z,1022.49
2019-03-23T07:01:28.467Z,1022.49
2019-03-23T07:02:28.442Z,1022.50
2019-03-23T07:03:28.425Z,1022.50
2019-03-23T07:04:28.443Z,1022.49
2019-03-23T07:05:28.388Z,1022.53
2019-03-23T07:06:28.369Z,1022.57
2019-03-23T07:07:28.351Z,1022.56
2019-03-23T07:08:32.196Z,1022.59
2019-03-23T07:09:28.310Z,1022.61
2019-03-23T07:10:28.298Z,1022.60
2019-03-23T07:11:28.275Z,1022.56
2019-03-23T07:12:28.255Z,1022.57
2019-03-23T07:13:28.235Z,1022.57
2019-03-23T07:14:28.221Z,1022.52
2019-03-23T07:15:28.203Z,1022.52
2019-03-23T07:16:28.185Z,1022.51
2019-03-23T07:17:28.162Z,1022.49
2019-03-23T07:18:28.145Z,1022.51
2019-03-23T07:19:28.128Z,1022.51
2019-03-23T07:20:28.108Z,1022.55
2019-03-23T07:21:28.090Z,1022.50
2019-03-23T07:22:28.067Z,1022.49
2019-03-23T07:23:28.054Z,1022.44
2019-03-23T07:24:28.029Z,1022.45
2019-03-23T07:25:28.017Z,1022.47
2019-03-23T07:26:27.993Z,1022.48
2019-03-23T07:27:27.972Z,1022.48
2019-03-23T07:28:27.953Z,1022.52
2019-03-23T07:29:27.932Z,1022.49
2019-03-23T07:30:27.917Z,1022.51
2019-03-23T07:31:27.896Z,1022.57
2019-03-23T07:32:27.883Z,1022.53
2019-03-23T07:33:27.875Z,1022.50
2019-03-23T07:34:27.840Z,1022.46
2019-03-23T07:35:27.824Z,1022.42
2019-03-23T07:36:27.807Z,1022.40
2019-03-23T07:37:27.786Z,1022.50
2019-03-23T07:38:27.767Z,1022.53
2019-03-23T07:39:30.355Z,1022.53
2019-03-23T07:40:27.738Z,1022.52
2019-03-23T07:41:27.711Z,1022.56
2019-03-23T07:42:27.698Z,1022.53
2019-03-23T07:43:27.681Z,1022.51
2019-03-23T07:44:27.655Z,1022.58
2019-03-23T07:45:27.638Z,1022.58
2019-03-23T07:46:27.622Z,1022.56
2019-03-23T07:47:27.601Z,1022.56
2019-03-23T07:48:28.566Z,1022.57
2019-03-23T07:49:27.565Z,1022.50
2019-03-23T07:50:27.543Z,1022.55
2019-03-23T07:51:27.532Z,1022.53
2019-03-23T07:52:27.509Z,1022.58
2019-03-23T07:53:27.489Z,1022.56
2019-03-23T07:54:27.474Z,1022.56
2019-03-23T07:55:27.454Z,1022.59
2019-03-23T07:56:27.434Z,1022.60
2019-03-23T07:57:27.415Z,1022.61
2019-03-23T07:58:27.399Z,1022.59
2019-03-23T07:59:27.379Z,1022.55
2019-03-23T08:00:27.363Z,1022.59
2019-03-23T08:01:27.349Z,1022.59
2019-03-23T08:02:27.353Z,1022.61
2019-03-23T08:03:27.309Z,1022.62
2019-03-23T08:04:27.298Z,1022.60
2019-03-23T08:05:27.281Z,1022.55
2019-03-23T08:06:27.259Z,1022.56
2019-03-23T08:07:27.253Z,1022.57
2019-03-23T08:08:27.217Z,1022.57
2019-03-23T08:09:37.109Z,1022.58
2019-03-23T08:10:27.183Z,1022.57
2019-03-23T08:11:27.183Z,1022.57
2019-03-23T08:12:27.142Z,1022.60
2019-03-23T08:13:27.265Z,1022.61
2019-03-23T08:14:27.105Z,1022.67
2019-03-23T08:15:27.095Z,1022.66
2019-03-23T08:16:27.067Z,1022.69
2019-03-23T08:17:27.065Z,1022.67
2019-03-23T08:18:27.030Z,1022.68
2019-03-23T08:19:27.019Z,1022.69
2019-03-23T08:20:26.999Z,1022.70
2019-03-23T08:21:26.979Z,1022.73
2019-03-23T08:22:26.965Z,1022.69
2019-03-23T08:23:26.947Z,1022.72
2019-03-23T08:24:26.932Z,1022.72
2019-03-23T08:25:26.906Z,1022.73
2019-03-23T08:26:26.889Z,1022.72
2019-03-23T08:27:26.883Z,1022.73
2019-03-23T08:28:26.850Z,1022.69
2019-03-23T08:29:26.845Z,1022.68
2019-03-23T08:30:26.813Z,1022.68
2019-03-23T08:31:26.799Z,1022.73
2019-03-23T08:32:26.783Z,1022.78
2019-03-23T08:33:26.764Z,1022.79
2019-03-23T08:34:26.742Z,1022.77
2019-03-23T08:35:26.725Z,1022.74
2019-03-23T08:36:26.715Z,1022.74
2019-03-23T08:37:26.704Z,1022.77
2019-03-23T08:38:26.672Z,1022.79
2019-03-23T08:39:26.660Z,1022.80
2019-03-23T08:40:26.636Z,1022.77
2019-03-23T08:41:26.617Z,1022.77
2019-03-23T08:42:26.599Z,1022.76
2019-03-23T08:43:26.580Z,1022.72
2019-03-23T08:44:26.572Z,1022.75
2019-03-23T08:45:26.548Z,1022.74
2019-03-23T08:46:26.521Z,1022.73
2019-03-23T08:47:26.515Z,1022.75
2019-03-23T08:48:26.487Z,1022.73
2019-03-23T08:49:28.617Z,1022.75
2019-03-23T08:50:26.450Z,1022.72
2019-03-23T08:51:26.442Z,1022.70
2019-03-23T08:52:28.819Z,1022.72
2019-03-23T08:53:26.397Z,1022.72
2019-03-23T08:54:26.381Z,1022.73
2019-03-23T08:55:26.363Z,1022.75
2019-03-23T08:56:26.355Z,1022.75
2019-03-23T08:57:26.334Z,1022.75
2019-03-23T08:58:26.311Z,1022.73
2019-03-23T08:59:26.302Z,1022.74
2019-03-23T09:00:26.305Z,1022.74
2019-03-23T09:01:26.254Z,1022.75
2019-03-23T09:02:26.241Z,1022.79
2019-03-23T09:03:26.217Z,1022.80
2019-03-23T09:04:26.203Z,1022.80
2019-03-23T09:05:26.182Z,1022.84
2019-03-23T09:06:26.172Z,1022.83
2019-03-23T09:07:26.146Z,1022.83
2019-03-23T09:08:26.139Z,1022.85
2019-03-23T09:09:26.108Z,1022.92
2019-03-23T09:10:26.092Z,1022.91
2019-03-23T09:11:26.076Z,1022.90
2019-03-23T09:12:26.061Z,1022.94
2019-03-23T09:13:26.046Z,1022.85
2019-03-23T09:14:26.035Z,1022.88
2019-03-23T09:15:26.006Z,1022.82
2019-03-23T09:16:25.984Z,1022.85
2019-03-23T09:17:25.966Z,1022.90
2019-03-23T09:18:25.963Z,1022.94
2019-03-23T09:19:25.932Z,1022.92
2019-03-23T09:20:25.919Z,1022.94
2019-03-23T09:21:25.900Z,1022.94
2019-03-23T09:22:25.878Z,1022.95
2019-03-23T09:23:25.873Z,1022.94
2019-03-23T09:24:25.847Z,1022.94
2019-03-23T09:25:25.824Z,1022.94
2019-03-23T09:26:25.808Z,1022.99
2019-03-23T09:27:25.791Z,1023.01
2019-03-23T09:28:25.773Z,1023.02
2019-03-23T09:29:25.755Z,1023.03
2019-03-23T09:30:25.745Z,1023.03
2019-03-23T09:31:25.719Z,1023.04
2019-03-23T09:32:25.705Z,1023.06
2019-03-23T09:33:25.686Z,1023.00
2019-03-23T09:34:25.668Z,1023.00
2019-03-23T09:35:25.650Z,1023.01
2019-03-23T09:36:25.636Z,1023.04
2019-03-23T09:37:25.620Z,1023.07
2019-03-23T09:38:25.599Z,1023.09
2019-03-23T09:39:25.581Z,1023.11
2019-03-23T09:40:25.566Z,1023.10
2019-03-23T09:41:25.543Z,1023.14
2019-03-23T09:42:25.527Z,1023.16
2019-03-23T09:43:25.514Z,1023.14
2019-03-23T09:44:25.500Z,1023.18
2019-03-23T09:45:25.479Z,1023.19
2019-03-23T09:46:25.460Z,1023.16
2019-03-23T09:47:25.456Z,1023.18
2019-03-23T09:48:25.425Z,1023.23
2019-03-23T09:49:25.417Z,1023.21
2019-03-23T09:50:25.390Z,1023.27
2019-03-23T09:51:25.371Z,1023.25
2019-03-23T09:52:25.372Z,1023.30
2019-03-23T09:53:25.346Z,1023.34
2019-03-23T09:54:25.346Z,1023.34
2019-03-23T09:55:25.313Z,1023.32
2019-03-23T09:56:25.288Z,1023.38
2019-03-23T09:57:25.272Z,1023.33
2019-03-23T09:58:25.254Z,1023.38
2019-03-23T09:59:25.237Z,1023.34
2019-03-23T10:00:25.229Z,1023.35
2019-03-23T10:01:25.201Z,1023.32
2019-03-23T10:02:25.193Z,1023.31
2019-03-23T10:03:25.168Z,1023.32
2019-03-23T10:04:25.156Z,1023.29
2019-03-23T10:05:25.139Z,1023.32
2019-03-23T10:06:25.119Z,1023.32
2019-03-23T10:07:25.111Z,1023.34
2019-03-23T10:08:25.086Z,1023.33
2019-03-23T10:09:25.071Z,1023.31
2019-03-23T10:10:25.060Z,1023.32
2019-03-23T10:11:25.041Z,1023.34
2019-03-23T10:12:25.019Z,1023.32
2019-03-23T10:13:25.006Z,1023.32
2019-03-23T10:14:24.990Z,1023.34
2019-03-23T10:15:24.978Z,1023.37
2019-03-23T10:16:24.955Z,1023.33
2019-03-23T10:17:24.955Z,1023.36
2019-03-23T10:18:24.921Z,1023.37
2019-03-23T10:19:24.904Z,1023.28
2019-03-23T10:20:24.887Z,1023.27
2019-03-23T10:21:24.872Z,1023.29
2019-03-23T10:22:24.854Z,1023.26
2019-03-23T10:23:24.846Z,1023.30
2019-03-23T10:24:24.822Z,1023.32
2019-03-23T10:25:24.810Z,1023.33
2019-03-23T10:26:24.789Z,1023.34
2019-03-23T10:27:24.777Z,1023.34
2019-03-23T10:28:24.762Z,1023.32
2019-03-23T10:29:24.745Z,1023.34
2019-03-23T10:30:24.730Z,1023.35
2019-03-23T10:31:24.707Z,1023.33
2019-03-23T10:32:24.696Z,1023.29
2019-03-23T10:33:24.683Z,1023.29
2019-03-23T10:34:24.660Z,1023.32
2019-03-23T10:35:24.645Z,1023.32
2019-03-23T10:36:24.627Z,1023.35
2019-03-23T10:37:26.109Z,1023.31
2019-03-23T10:38:24.597Z,1023.39
2019-03-23T10:39:24.581Z,1023.35
2019-03-23T10:40:32.513Z,1023.31
2019-03-23T10:41:24.549Z,1023.32
2019-03-23T10:42:24.534Z,1023.30
2019-03-23T10:43:24.516Z,1023.31
2019-03-23T10:44:24.501Z,1023.32
2019-03-23T10:45:24.484Z,1023.39
2019-03-23T10:46:25.153Z,1023.39
2019-03-23T10:47:24.459Z,1023.35
2019-03-23T10:48:24.443Z,1023.34
2019-03-23T10:49:24.421Z,1023.34
2019-03-23T10:50:24.405Z,1023.35
2019-03-23T10:51:24.398Z,1023.34
2019-03-23T10:52:24.379Z,1023.41
2019-03-23T10:53:24.357Z,1023.37
2019-03-23T10:54:24.347Z,1023.33
2019-03-23T10:55:24.330Z,1023.29
2019-03-23T10:56:24.315Z,1023.27
2019-03-23T10:57:24.297Z,1023.35
2019-03-23T10:58:24.283Z,1023.35
2019-03-23T10:59:24.273Z,1023.40
2019-03-23T11:00:24.259Z,1023.39
2019-03-23T11:01:24.294Z,1023.45
2019-03-23T11:02:24.231Z,1023.46
2019-03-23T11:03:24.211Z,1023.41
2019-03-23T11:04:24.220Z,1023.39
2019-03-23T11:05:24.186Z,1023.38
2019-03-23T11:06:24.170Z,1023.40
2019-03-23T11:07:24.175Z,1023.42
2019-03-23T11:08:24.143Z,1023.37
2019-03-23T11:09:24.129Z,1023.35
2019-03-23T11:10:24.115Z,1023.41
2019-03-23T11:11:24.104Z,1023.39
2019-03-23T11:12:24.101Z,1023.36
2019-03-23T11:13:24.074Z,1023.38
2019-03-23T11:14:24.067Z,1023.37
2019-03-23T11:15:24.049Z,1023.38
2019-03-23T11:16:24.033Z,1023.37
2019-03-23T11:17:24.235Z,1023.37
2019-03-23T11:18:24.004Z,1023.33
2019-03-23T11:19:24.010Z,1023.38
2019-03-23T11:20:23.997Z,1023.37
2019-03-23T11:21:23.968Z,1023.36
2019-03-23T11:22:23.952Z,1023.38
2019-03-23T11:23:23.940Z,1023.38
2019-03-23T11:24:23.923Z,1023.38
2019-03-23T11:25:23.908Z,1023.40
2019-03-23T11:26:23.898Z,1023.45
2019-03-23T11:27:23.881Z,1023.41
2019-03-23T11:28:23.865Z,1023.45
2019-03-23T11:29:23.867Z,1023.44
2019-03-23T11:30:23.839Z,1023.42
2019-03-23T11:31:23.826Z,1023.43
2019-03-23T11:32:23.817Z,1023.47
2019-03-23T11:33:23.803Z,1023.46
2019-03-23T11:34:23.790Z,1023.44
2019-03-23T11:35:23.868Z,1023.39
2019-03-23T11:36:23.754Z,1023.42
2019-03-23T11:37:23.904Z,1023.38
2019-03-23T11:38:23.737Z,1023.37
2019-03-23T11:39:23.707Z,1023.38
2019-03-23T11:40:23.747Z,1023.38
2019-03-23T11:41:23.686Z,1023.35
2019-03-23T11:42:23.704Z,1023.36
2019-03-23T11:43:23.651Z,1023.36
2019-03-23T11:44:23.644Z,1023.33
2019-03-23T11:45:23.625Z,1023.31
2019-03-23T11:46:23.615Z,1023.37
2019-03-23T11:47:23.595Z,1023.37
2019-03-23T11:48:23.579Z,1023.36
2019-03-23T11:49:23.579Z,1023.36
2019-03-23T11:50:23.551Z,1023.35
2019-03-23T11:51:23.538Z,1023.32
2019-03-23T11:52:23.520Z,1023.34
2019-03-23T11:53:23.517Z,1023.35
2019-03-23T11:54:23.487Z,1023.38
2019-03-23T11:55:23.472Z,1023.36
2019-03-23T11:56:23.465Z,1023.32
2019-03-23T11:57:23.447Z,1023.34
2019-03-23T11:58:23.433Z,1023.34
2019-03-23T11:59:23.420Z,1023.35
2019-03-23T12:00:23.400Z,1023.38
2019-03-23T12:01:23.390Z,1023.40
2019-03-23T12:02:23.382Z,1023.39
2019-03-23T12:03:23.369Z,1023.39
2019-03-23T12:04:25.042Z,1023.38
2019-03-23T12:05:23.331Z,1023.41